Time;durP1;ratioP1;P1;durP2;ratioP2;P2;SDS_P1;SDS_P2;PMS_P1;PMS_P2;Temp;Humidity;BMP_temperature;BMP_pressure;BME280_temperature;BME280_humidity;BME280_pressure;Samples;Min_cycle;Max_cycle;Signal;HPM_P1;HPM_P2
2021/12/06 00:02:24;;;;;;;130.93;68.63;;;;;;;;;;4938645;29;20054;-78
2021/12/06 00:04:50;;;;;;;139.07;73.10;;;;;;;;;;4949173;29;20049;-77
2021/12/06 00:07:18;;;;;;;125.63;69.25;;;;;;;;;;4956818;28;20020;-77
2021/12/06 00:09:45;;;;;;;126.82;65.43;;;;;;;;;;4958191;29;20038;-78
2021/12/06 00:12:11;;;;;;;108.38;59.63;;;;;;;;;;4960169;29;20478;-78
2021/12/06 00:14:40;;;;;;;102.05;55.05;;;;;;;;;;4960203;28;20054;-77
2021/12/06 00:17:09;;;;;;;96.60;53.20;;;;;;;;;;4958778;28;20027;-77
2021/12/06 00:19:37;;;;;;;81.20;48.28;;;;;;;;;;4958434;29;20030;-77
2021/12/06 00:22:07;;;;;;;81.22;48.03;;;;;;;;;;4958659;29;20144;-77
2021/12/06 00:24:35;;;;;;;62.95;39.28;;;;;;;;;;4959988;28;20023;-77
2021/12/06 00:27:01;;;;;;;60.13;36.55;;;;;;;;;;4958662;29;20023;-76
2021/12/06 00:29:28;;;;;;;58.03;36.38;;;;;;;;;;4958749;29;20027;-77
2021/12/06 00:31:54;;;;;;;57.85;37.35;;;;;;;;;;4958616;29;20490;-76
2021/12/06 00:34:21;;;;;;;62.72;38.22;;;;;;;;;;4955752;28;20113;-77
2021/12/06 00:37:05;;;;;;;58.78;36.30;;;;;;;;;;4958513;28;20082;-77
2021/12/06 00:39:32;;;;;;;58.33;35.60;;;;;;;;;;4950427;28;20062;-77
2021/12/06 00:42:01;;;;;;;59.75;36.78;;;;;;;;;;4963170;28;20038;-77
2021/12/06 00:44:27;;;;;;;61.58;37.10;;;;;;;;;;4958675;28;20148;-77
2021/12/06 00:46:53;;;;;;;59.67;35.95;;;;;;;;;;4957848;29;20038;-78
2021/12/06 00:49:19;;;;;;;63.45;38.35;;;;;;;;;;4958117;29;20051;-77
2021/12/06 00:51:45;;;;;;;66.32;37.83;;;;;;;;;;4957147;28;20532;-77
2021/12/06 00:54:11;;;;;;;64.32;38.15;;;;;;;;;;4958814;28;20063;-77
2021/12/06 00:56:40;;;;;;;60.72;36.65;;;;;;;;;;4959433;29;20026;-77
2021/12/06 00:59:06;;;;;;;66.07;37.95;;;;;;;;;;4955440;29;20015;-78
2021/12/06 01:01:33;;;;;;;60.63;36.03;;;;;;;;;;4940975;29;20050;-77
2021/12/06 01:03:59;;;;;;;58.10;33.80;;;;;;;;;;4958214;29;20035;-76
2021/12/06 01:06:26;;;;;;;49.60;30.45;;;;;;;;;;4958340;29;20038;-77
2021/12/06 01:08:52;;;;;;;47.45;29.45;;;;;;;;;;4958185;29;20024;-76
2021/12/06 01:11:18;;;;;;;49.90;30.98;;;;;;;;;;4958401;29;20026;-77
2021/12/06 01:13:44;;;;;;;49.95;28.85;;;;;;;;;;4956959;29;20037;-77
2021/12/06 01:16:10;;;;;;;45.65;27.90;;;;;;;;;;4958319;29;20110;-77
2021/12/06 01:18:37;;;;;;;45.13;28.60;;;;;;;;;;4958171;29;20039;-78
2021/12/06 01:21:17;;;;;;;47.08;28.27;;;;;;;;;;4959485;28;20115;-77
2021/12/06 01:23:59;;;;;;;48.95;28.98;;;;;;;;;;4958840;29;20027;-77
2021/12/06 01:39:51;;;;;;;51.88;29.52;;;;;;;;;;4957471;29;20042;-77
2021/12/06 01:42:18;;;;;;;57.65;31.70;;;;;;;;;;4957701;28;20027;-77
2021/12/06 01:44:49;;;;;;;61.00;32.72;;;;;;;;;;4957776;28;20031;-76
2021/12/06 01:47:17;;;;;;;47.45;28.85;;;;;;;;;;4957285;28;20503;-77
2021/12/06 01:49:45;;;;;;;50.92;30.27;;;;;;;;;;4956822;29;20047;-77
2021/12/06 01:52:14;;;;;;;49.60;30.00;;;;;;;;;;4957502;29;20038;-77
2021/12/06 01:54:40;;;;;;;43.20;27.33;;;;;;;;;;4957399;28;20087;-77
2021/12/06 01:57:06;;;;;;;48.28;29.30;;;;;;;;;;4956861;29;20102;-77
2021/12/06 01:59:33;;;;;;;45.60;28.60;;;;;;;;;;4957158;29;20058;-78
2021/12/06 02:01:59;;;;;;;50.83;28.85;;;;;;;;;;4958703;29;20051;-77
2021/12/06 02:04:26;;;;;;;46.08;28.15;;;;;;;;;;4957487;29;20383;-77
2021/12/06 02:06:52;;;;;;;53.83;30.63;;;;;;;;;;4957378;29;20054;-78
2021/12/06 02:09:19;;;;;;;53.95;31.58;;;;;;;;;;4956869;29;20027;-76
2021/12/06 02:11:46;;;;;;;51.42;30.17;;;;;;;;;;4956848;29;20393;-78
2021/12/06 02:16:57;;;;;;;48.35;29.58;;;;;;;;;;4957106;28;20042;-78
2021/12/06 02:19:30;;;;;;;49.10;29.77;;;;;;;;;;4956598;28;20078;-77
2021/12/06 02:21:56;;;;;;;47.50;29.53;;;;;;;;;;4939466;29;20122;-77
2021/12/06 02:24:23;;;;;;;49.25;28.55;;;;;;;;;;4955830;29;20393;-78
2021/12/06 02:26:51;;;;;;;52.42;28.88;;;;;;;;;;4955695;28;20110;-77
2021/12/06 02:29:17;;;;;;;53.17;28.63;;;;;;;;;;4947575;28;20019;-77
2021/12/06 02:31:43;;;;;;;63.50;32.80;;;;;;;;;;4956383;28;20062;-77
2021/12/06 02:34:09;;;;;;;61.72;31.25;;;;;;;;;;4956315;29;20098;-77
2021/12/06 02:36:36;;;;;;;52.13;29.35;;;;;;;;;;4956781;29;20035;-77
2021/12/06 02:39:03;;;;;;;71.30;33.53;;;;;;;;;;4955961;29;20485;-77
2021/12/06 02:41:29;;;;;;;71.90;35.05;;;;;;;;;;4951200;29;20035;-77
2021/12/06 02:43:56;;;;;;;70.07;33.58;;;;;;;;;;4953870;29;20028;-77
2021/12/06 02:46:23;;;;;;;81.28;32.25;;;;;;;;;;4955949;28;20035;-77
2021/12/06 02:48:49;;;;;;;68.80;33.78;;;;;;;;;;4955142;28;20094;-77
2021/12/06 02:51:18;;;;;;;66.55;33.58;;;;;;;;;;4952892;28;20446;-77
2021/12/06 02:53:45;;;;;;;84.50;36.05;;;;;;;;;;4955966;28;20031;-77
2021/12/06 02:56:28;;;;;;;89.90;34.20;;;;;;;;;;4955498;28;20106;-77
2021/12/06 02:58:56;;;;;;;79.43;34.20;;;;;;;;;;4938267;28;20027;-77
2021/12/06 03:01:26;;;;;;;70.85;33.90;;;;;;;;;;4954932;29;20082;-76
2021/12/06 03:03:52;;;;;;;66.45;33.53;;;;;;;;;;4954705;29;20023;-76
2021/12/06 03:06:18;;;;;;;66.80;32.53;;;;;;;;;;4955954;28;20073;-76
2021/12/06 03:08:50;;;;;;;68.88;34.50;;;;;;;;;;4955550;29;20026;-76
2021/12/06 03:11:19;;;;;;;85.93;36.97;;;;;;;;;;4955219;28;20489;-76
2021/12/06 03:13:45;;;;;;;64.80;33.60;;;;;;;;;;4955356;29;20042;-77
2021/12/06 03:16:11;;;;;;;71.65;35.35;;;;;;;;;;4955249;28;20033;-77
2021/12/06 03:18:37;;;;;;;60.42;32.28;;;;;;;;;;4954647;29;20477;-77
2021/12/06 03:21:04;;;;;;;75.63;34.67;;;;;;;;;;4954788;28;20055;-77
2021/12/06 03:23:30;;;;;;;63.10;33.35;;;;;;;;;;4955261;29;20494;-77
2021/12/06 03:25:56;;;;;;;66.75;34.30;;;;;;;;;;4954649;28;20118;-77
2021/12/06 03:28:23;;;;;;;63.13;32.85;;;;;;;;;;4955393;28;20027;-77
2021/12/06 03:30:49;;;;;;;61.78;32.65;;;;;;;;;;4954993;29;20042;-77
2021/12/06 03:33:15;;;;;;;73.57;36.50;;;;;;;;;;4952872;28;20505;-76
2021/12/06 03:35:41;;;;;;;65.57;35.17;;;;;;;;;;4954882;29;20043;-78
2021/12/06 03:38:07;;;;;;;61.97;33.22;;;;;;;;;;4954890;29;20019;-77
2021/12/06 03:40:33;;;;;;;68.13;32.00;;;;;;;;;;4954824;28;20174;-77
2021/12/06 03:42:59;;;;;;;62.38;32.97;;;;;;;;;;4954513;28;20098;-77
2021/12/06 03:45:25;;;;;;;61.83;32.35;;;;;;;;;;4958962;28;20031;-78
2021/12/06 03:47:51;;;;;;;57.67;29.08;;;;;;;;;;4958855;28;20401;-77
2021/12/06 03:50:18;;;;;;;72.50;33.03;;;;;;;;;;4958806;29;20460;-77
2021/12/06 03:52:44;;;;;;;60.13;30.52;;;;;;;;;;4960130;28;20027;-78
2021/12/06 03:55:11;;;;;;;60.80;30.48;;;;;;;;;;4959041;29;20039;-77
2021/12/06 03:57:37;;;;;;;57.13;29.35;;;;;;;;;;4958393;28;20024;-76
2021/12/06 04:00:04;;;;;;;55.00;28.83;;;;;;;;;;4958747;29;20062;-76
2021/12/06 04:02:31;;;;;;;53.88;28.77;;;;;;;;;;4958942;29;20015;-77
2021/12/06 04:04:57;;;;;;;55.50;29.10;;;;;;;;;;4955413;28;20441;-76
2021/12/06 04:07:24;;;;;;;56.10;28.33;;;;;;;;;;4958481;28;20110;-77
2021/12/06 04:09:50;;;;;;;49.30;28.67;;;;;;;;;;4948723;29;20067;-77
2021/12/06 04:12:16;;;;;;;51.10;28.05;;;;;;;;;;4943126;29;20086;-77
2021/12/06 04:14:43;;;;;;;51.40;28.73;;;;;;;;;;4957995;29;20043;-77
2021/12/06 04:17:09;;;;;;;48.30;25.92;;;;;;;;;;4958736;28;20431;-77
2021/12/06 04:19:35;;;;;;;47.95;27.25;;;;;;;;;;4958307;28;20035;-77
2021/12/06 04:22:01;;;;;;;50.15;27.20;;;;;;;;;;4958890;29;20023;-77
2021/12/06 04:24:28;;;;;;;39.45;24.05;;;;;;;;;;4958408;29;20047;-77
2021/12/06 04:26:54;;;;;;;40.80;24.85;;;;;;;;;;4957436;29;20031;-77
2021/12/06 04:29:20;;;;;;;36.38;23.33;;;;;;;;;;4957390;29;20439;-77
2021/12/06 04:31:48;;;;;;;42.03;24.20;;;;;;;;;;4958246;28;20029;-77
2021/12/06 04:34:14;;;;;;;46.17;24.85;;;;;;;;;;4939602;29;20157;-77
2021/12/06 04:36:41;;;;;;;42.55;23.95;;;;;;;;;;4952609;29;20027;-77
2021/12/06 04:39:09;;;;;;;41.15;24.63;;;;;;;;;;4958243;28;20400;-77
2021/12/06 04:41:36;;;;;;;47.63;26.08;;;;;;;;;;4957797;28;20057;-77
2021/12/06 04:44:02;;;;;;;47.20;25.90;;;;;;;;;;4957313;28;20107;-77
2021/12/06 04:46:28;;;;;;;46.53;25.40;;;;;;;;;;4958149;29;20031;-76
2021/12/06 04:48:54;;;;;;;50.67;27.73;;;;;;;;;;4958593;29;20023;-78
2021/12/06 04:51:20;;;;;;;47.70;27.83;;;;;;;;;;4957353;28;20027;-76
2021/12/06 04:53:47;;;;;;;52.45;28.30;;;;;;;;;;4957609;28;20075;-77
2021/12/06 04:56:19;;;;;;;55.38;29.25;;;;;;;;;;4956595;29;20031;-77
2021/12/06 04:58:53;;;;;;;54.50;27.25;;;;;;;;;;4939690;28;20075;-76
2021/12/06 05:01:21;;;;;;;62.47;29.25;;;;;;;;;;4955037;28;20039;-76
2021/12/06 05:03:47;;;;;;;66.63;30.23;;;;;;;;;;4957896;29;20038;-77
2021/12/06 05:06:16;;;;;;;69.60;31.95;;;;;;;;;;4957776;28;20188;-77
2021/12/06 05:08:45;;;;;;;67.60;31.08;;;;;;;;;;4958043;29;20612;-77
2021/12/06 05:11:11;;;;;;;67.00;31.00;;;;;;;;;;4957817;29;20027;-76
2021/12/06 05:13:39;;;;;;;78.47;33.15;;;;;;;;;;4956786;29;20038;-76
2021/12/06 05:16:08;;;;;;;61.58;30.73;;;;;;;;;;4954368;29;20172;-76
2021/12/06 05:18:34;;;;;;;59.67;31.02;;;;;;;;;;4939962;29;20396;-76
2021/12/06 05:21:01;;;;;;;60.78;30.10;;;;;;;;;;4957181;28;20023;-76
2021/12/06 05:23:27;;;;;;;68.68;31.15;;;;;;;;;;4950439;29;20075;-77
2021/12/06 05:25:53;;;;;;;68.57;32.28;;;;;;;;;;4963643;28;21721;-76
2021/12/06 05:28:25;;;;;;;62.50;31.08;;;;;;;;;;4959087;29;20035;-78
2021/12/06 05:30:54;;;;;;;70.35;31.38;;;;;;;;;;4959561;29;20026;-76
2021/12/06 05:33:29;;;;;;;64.72;31.60;;;;;;;;;;4958171;29;20375;-76
2021/12/06 05:35:56;;;;;;;70.28;33.08;;;;;;;;;;4959199;29;20122;-78
2021/12/06 05:38:24;;;;;;;65.28;32.33;;;;;;;;;;4957389;29;20421;-77
2021/12/06 05:40:52;;;;;;;67.05;33.40;;;;;;;;;;4958523;29;20038;-76
2021/12/06 05:43:18;;;;;;;61.47;31.40;;;;;;;;;;4957523;29;20027;-77
2021/12/06 05:45:44;;;;;;;66.50;33.05;;;;;;;;;;4959291;29;20035;-77
2021/12/06 05:48:10;;;;;;;78.88;36.17;;;;;;;;;;4957092;29;20027;-77
2021/12/06 05:50:36;;;;;;;82.60;35.78;;;;;;;;;;4959445;29;20019;-76
2021/12/06 05:53:03;;;;;;;84.93;35.42;;;;;;;;;;4946475;29;20039;-77
2021/12/06 05:55:31;;;;;;;94.63;35.42;;;;;;;;;;4963486;28;20035;-78
2021/12/06 05:58:00;;;;;;;81.85;34.45;;;;;;;;;;4962996;28;20023;-77
2021/12/06 06:00:29;;;;;;;85.95;35.28;;;;;;;;;;4961485;29;20478;-76
2021/12/06 06:02:56;;;;;;;80.50;32.85;;;;;;;;;;4963956;28;20099;-77
2021/12/06 06:05:22;;;;;;;73.60;32.35;;;;;;;;;;4956686;28;20031;-77
2021/12/06 06:07:48;;;;;;;92.25;32.45;;;;;;;;;;4966127;29;20019;-73
2021/12/06 06:10:34;;;;;;;69.72;31.60;;;;;;;;;;4972573;29;20035;-78
2021/12/06 06:13:25;;;;;;;70.95;31.25;;;;;;;;;;4960838;29;20042;-79
2021/12/06 06:16:20;;;;;;;65.95;30.80;;;;;;;;;;4968871;29;20022;-76
2021/12/06 06:18:47;;;;;;;57.85;28.58;;;;;;;;;;4977200;28;20027;-75
2021/12/06 06:21:32;;;;;;;66.43;30.17;;;;;;;;;;4971532;29;20077;-78
2021/12/06 06:26:32;;;;;;;76.10;31.40;;;;;;;;;;4966602;29;20114;-78
2021/12/06 06:29:00;;;;;;;66.45;32.80;;;;;;;;;;4915189;29;20038;-78
2021/12/06 06:31:26;;;;;;;77.10;32.80;;;;;;;;;;4922803;29;20032;-77
2021/12/06 06:33:52;;;;;;;84.10;32.85;;;;;;;;;;4941186;29;20027;-73
2021/12/06 06:36:18;;;;;;;70.20;31.02;;;;;;;;;;4938664;29;20051;-74
2021/12/06 06:38:44;;;;;;;75.88;32.20;;;;;;;;;;4938633;29;20040;-73
2021/12/06 06:41:11;;;;;;;65.13;30.05;;;;;;;;;;4937191;29;20482;-76
2021/12/06 06:43:37;;;;;;;89.75;31.65;;;;;;;;;;4937594;29;20067;-77
2021/12/06 06:46:04;;;;;;;90.30;34.25;;;;;;;;;;4936509;29;20031;-77
2021/12/06 06:48:30;;;;;;;75.25;33.05;;;;;;;;;;4947004;29;20039;-76
2021/12/06 06:50:57;;;;;;;102.70;37.22;;;;;;;;;;4936526;29;20561;-75
2021/12/06 06:53:23;;;;;;;81.28;33.83;;;;;;;;;;4936367;29;20047;-77
2021/12/06 06:55:50;;;;;;;80.95;34.15;;;;;;;;;;4936264;29;20055;-77
2021/12/06 06:58:16;;;;;;;75.65;33.78;;;;;;;;;;4939974;29;20028;-74
2021/12/06 07:00:42;;;;;;;78.43;35.30;;;;;;;;;;4944766;29;20027;-76
2021/12/06 07:03:08;;;;;;;75.28;35.38;;;;;;;;;;4942973;29;20453;-75
2021/12/06 07:05:35;;;;;;;74.13;35.20;;;;;;;;;;4944264;29;20023;-77
2021/12/06 07:08:01;;;;;;;62.05;31.15;;;;;;;;;;4941553;29;20059;-75
2021/12/06 07:10:27;;;;;;;66.80;35.60;;;;;;;;;;4939837;29;20122;-74
2021/12/06 07:12:54;;;;;;;63.53;34.10;;;;;;;;;;4941124;29;20023;-74
2021/12/06 07:15:24;;;;;;;67.78;36.65;;;;;;;;;;4938482;29;20044;-76
2021/12/06 07:17:51;;;;;;;55.13;31.20;;;;;;;;;;4934072;29;20066;-75
2021/12/06 07:20:18;;;;;;;53.13;31.60;;;;;;;;;;4933143;29;20028;-75
2021/12/06 07:22:48;;;;;;;55.58;30.50;;;;;;;;;;4941416;29;20024;-76
2021/12/06 07:25:16;;;;;;;45.88;28.17;;;;;;;;;;4937101;29;20047;-77
2021/12/06 07:27:42;;;;;;;52.75;30.40;;;;;;;;;;4938479;29;20035;-77
2021/12/06 07:30:09;;;;;;;47.83;28.75;;;;;;;;;;4938469;29;20032;-77
2021/12/06 07:32:35;;;;;;;49.40;29.85;;;;;;;;;;4939302;29;20031;-76
2021/12/06 07:35:04;;;;;;;48.17;30.67;;;;;;;;;;4934955;29;20490;-76
2021/12/06 07:37:30;;;;;;;49.20;31.67;;;;;;;;;;4938390;29;20032;-78
2021/12/06 07:39:56;;;;;;;45.20;29.30;;;;;;;;;;4937008;29;20083;-76
2021/12/06 07:42:33;;;;;;;48.75;29.63;;;;;;;;;;4938681;29;20485;-78
2021/12/06 07:45:02;;;;;;;54.42;34.85;;;;;;;;;;4938288;29;20027;-78
2021/12/06 07:50:59;;;;;;;47.40;31.05;;;;;;;;;;4933559;28;20018;-81
2021/12/06 08:09:18;;;;;;;32.45;23.95;;;;;;;;;;5460235;23;20081;-75
2021/12/06 08:11:45;;;;;;;36.10;24.52;;;;;;;;;;4971579;28;20023;-75
2021/12/06 08:14:11;;;;;;;34.08;24.73;;;;;;;;;;4969566;28;20061;-79
2021/12/06 08:16:40;;;;;;;32.38;24.27;;;;;;;;;;4978369;28;20031;-77
2021/12/06 08:19:07;;;;;;;38.20;24.55;;;;;;;;;;4964044;28;20027;-77
2021/12/06 08:21:33;;;;;;;36.80;26.88;;;;;;;;;;4977594;28;20027;-75
2021/12/06 08:24:02;;;;;;;35.00;23.77;;;;;;;;;;4978749;28;20046;-76
2021/12/06 08:26:30;;;;;;;31.77;23.45;;;;;;;;;;4960268;28;20030;-76
2021/12/06 08:28:57;;;;;;;23.02;17.58;;;;;;;;;;4985088;28;20033;-74
2021/12/06 08:31:23;;;;;;;21.55;17.33;;;;;;;;;;4977031;28;20096;-75
2021/12/06 08:33:50;;;;;;;23.45;18.15;;;;;;;;;;4970351;28;20027;-76
2021/12/06 08:36:17;;;;;;;24.88;18.55;;;;;;;;;;4989338;28;20038;-74
2021/12/06 08:38:43;;;;;;;22.17;17.33;;;;;;;;;;4966937;28;20086;-73
2021/12/06 08:41:11;;;;;;;23.30;18.58;;;;;;;;;;4966275;28;20393;-75
2021/12/06 08:43:37;;;;;;;25.00;18.98;;;;;;;;;;4979082;28;20127;-72
2021/12/06 08:46:10;;;;;;;24.05;19.20;;;;;;;;;;4966418;28;20465;-76
2021/12/06 08:48:37;;;;;;;22.52;17.52;;;;;;;;;;4977078;28;20094;-76
2021/12/06 08:51:07;;;;;;;21.30;17.75;;;;;;;;;;4973470;28;20023;-73
2021/12/06 09:12:11;;;;;;;22.70;17.80;;;;;;;;;;5647610;23;20083;-75
2021/12/06 09:14:38;;;;;;;25.10;18.88;;;;;;;;;;4978792;28;20047;-74
2021/12/06 09:17:04;;;;;;;23.63;19.30;;;;;;;;;;4989425;28;20042;-73
2021/12/06 09:19:31;;;;;;;24.60;18.98;;;;;;;;;;4979029;28;20030;-73
2021/12/06 09:21:57;;;;;;;25.13;19.45;;;;;;;;;;4974072;28;20023;-73
2021/12/06 09:24:23;;;;;;;24.85;18.85;;;;;;;;;;4974066;28;20038;-72
2021/12/06 09:26:49;;;;;;;27.67;20.33;;;;;;;;;;4980574;28;20042;-72
2021/12/06 09:29:16;;;;;;;26.60;20.20;;;;;;;;;;4966548;29;20019;-74
2021/12/06 09:31:42;;;;;;;29.95;21.75;;;;;;;;;;4981814;28;20469;-76
2021/12/06 09:34:08;;;;;;;29.73;21.67;;;;;;;;;;4955817;29;20556;-74
2021/12/06 09:36:35;;;;;;;31.30;23.67;;;;;;;;;;4976312;28;20035;-74
2021/12/06 09:39:02;;;;;;;31.80;24.25;;;;;;;;;;4973208;29;20094;-77
2021/12/06 09:41:28;;;;;;;33.88;24.92;;;;;;;;;;4967738;28;20545;-75
2021/12/06 09:44:13;;;;;;;35.80;24.90;;;;;;;;;;4963911;28;20019;-79
2021/12/06 09:46:40;;;;;;;35.03;24.70;;;;;;;;;;4961952;28;20031;-78
2021/12/06 10:02:08;;;;;;;37.65;25.52;;;;;;;;;;5256916;23;20058;-77
2021/12/06 10:04:38;;;;;;;33.13;24.60;;;;;;;;;;4941953;29;20035;-73
2021/12/06 10:07:07;;;;;;;38.45;27.48;;;;;;;;;;4951890;28;20020;-74
2021/12/06 10:09:33;;;;;;;38.45;26.77;;;;;;;;;;4957540;28;20027;-77
2021/12/06 10:12:01;;;;;;;37.83;25.15;;;;;;;;;;4979026;28;20031;-74
2021/12/06 10:14:28;;;;;;;35.72;24.83;;;;;;;;;;4975932;28;20063;-74
2021/12/06 10:16:54;;;;;;;35.97;25.98;;;;;;;;;;4970321;29;20031;-74
2021/12/06 10:19:22;;;;;;;34.60;24.75;;;;;;;;;;4966768;29;20014;-77
2021/12/06 10:21:54;;;;;;;34.67;25.25;;;;;;;;;;4949580;28;20050;-77
2021/12/06 10:24:23;;;;;;;38.85;25.33;;;;;;;;;;4968627;29;20027;-76
2021/12/06 10:26:49;;;;;;;34.13;24.23;;;;;;;;;;4958092;28;20070;-74
2021/12/06 10:29:22;;;;;;;31.90;22.30;;;;;;;;;;4949153;29;20055;-76
2021/12/06 10:31:51;;;;;;;35.03;23.48;;;;;;;;;;4939438;29;20091;-73
2021/12/06 10:34:19;;;;;;;31.63;23.52;;;;;;;;;;4946319;29;20521;-74
2021/12/06 10:36:45;;;;;;;39.40;25.45;;;;;;;;;;4949070;29;20137;-75
2021/12/06 10:39:12;;;;;;;32.97;23.90;;;;;;;;;;4937878;29;20055;-76
2021/12/06 10:41:38;;;;;;;33.90;23.90;;;;;;;;;;4942590;29;20035;-77
2021/12/06 10:44:09;;;;;;;31.80;24.23;;;;;;;;;;4922678;29;20036;-74
2021/12/06 10:46:36;;;;;;;32.85;24.50;;;;;;;;;;4939658;29;20039;-77
2021/12/06 10:49:04;;;;;;;33.65;24.15;;;;;;;;;;4938027;29;20083;-78
2021/12/06 10:51:31;;;;;;;34.67;23.98;;;;;;;;;;4921001;29;20047;-78
2021/12/06 10:54:04;;;;;;;35.22;24.38;;;;;;;;;;4935187;29;20028;-79
2021/12/06 10:56:44;;;;;;;35.55;25.30;;;;;;;;;;4933966;29;20134;-76
2021/12/06 10:59:12;;;;;;;36.25;25.63;;;;;;;;;;4937763;29;20015;-76
2021/12/06 11:01:38;;;;;;;40.03;27.60;;;;;;;;;;4936098;29;20077;-77
2021/12/06 11:04:07;;;;;;;566.05;98.07;;;;;;;;;;4932985;29;20027;-77
2021/12/06 11:06:36;;;;;;;79.03;29.40;;;;;;;;;;4937650;29;20039;-75
2021/12/06 11:09:04;;;;;;;37.42;27.65;;;;;;;;;;4925110;29;20039;-77
2021/12/06 11:11:36;;;;;;;126.35;44.13;;;;;;;;;;4930609;29;20038;-75
2021/12/06 11:14:04;;;;;;;92.93;44.60;;;;;;;;;;4921239;29;20070;-77
2021/12/06 11:16:40;;;;;;;31.67;22.75;;;;;;;;;;4938244;29;20034;-77
2021/12/06 11:19:08;;;;;;;31.98;22.58;;;;;;;;;;4938399;29;20516;-76
2021/12/06 11:21:35;;;;;;;32.38;23.63;;;;;;;;;;4944287;29;20038;-76
2021/12/06 11:24:19;;;;;;;33.90;24.08;;;;;;;;;;4927014;29;20020;-78
2021/12/06 11:26:55;;;;;;;37.92;26.58;;;;;;;;;;4935103;29;20110;-78
2021/12/06 11:30:02;;;;;;;37.22;26.75;;;;;;;;;;4949864;29;20052;-78
2021/12/06 11:32:45;;;;;;;38.45;25.85;;;;;;;;;;4955194;28;20063;-78
2021/12/06 11:35:36;;;;;;;35.97;26.63;;;;;;;;;;4958329;28;20035;-78
2021/12/06 11:38:56;;;;;;;35.67;25.40;;;;;;;;;;4902210;29;20100;-78
2021/12/06 11:41:52;;;;;;;42.75;27.85;;;;;;;;;;4826132;29;20049;-78
2021/12/06 11:44:43;;;;;;;53.45;33.45;;;;;;;;;;4820422;29;20033;-78
2021/12/06 11:52:28;;;;;;;61.25;37.28;;;;;;;;;;5952919;23;20142;-74
2021/12/06 11:54:57;;;;;;;129.10;66.30;;;;;;;;;;4976003;28;20046;-77
2021/12/06 11:57:28;;;;;;;41.15;29.48;;;;;;;;;;4958675;28;20025;-77
2021/12/06 11:59:56;;;;;;;41.15;30.65;;;;;;;;;;4975159;28;20027;-75
2021/12/06 12:02:29;;;;;;;32.53;24.63;;;;;;;;;;4980223;28;20034;-75
2021/12/06 12:05:11;;;;;;;35.63;25.40;;;;;;;;;;4960656;28;20058;-77
2021/12/06 12:07:56;;;;;;;32.83;23.20;;;;;;;;;;4977413;28;20038;-75
2021/12/06 12:26:12;;;;;;;35.88;24.65;;;;;;;;;;5836986;23;20063;-74
2021/12/06 12:28:49;;;;;;;35.17;25.88;;;;;;;;;;4923539;29;20119;-76
2021/12/06 12:31:17;;;;;;;35.63;24.52;;;;;;;;;;4929114;29;20016;-74
2021/12/06 12:33:48;;;;;;;36.53;26.15;;;;;;;;;;4937486;29;20494;-76
2021/12/06 12:36:16;;;;;;;45.00;33.10;;;;;;;;;;4918044;29;20044;-73
2021/12/06 12:38:43;;;;;;;35.08;26.15;;;;;;;;;;4948646;29;20019;-72
2021/12/06 12:41:11;;;;;;;37.13;26.25;;;;;;;;;;4931536;29;20032;-74
2021/12/06 12:43:38;;;;;;;34.33;24.08;;;;;;;;;;4924469;29;20107;-75
2021/12/06 12:46:14;;;;;;;34.70;21.75;;;;;;;;;;4928798;29;20034;-76
2021/12/06 12:49:00;;;;;;;30.15;22.33;;;;;;;;;;4923308;29;20063;-75
2021/12/06 12:51:27;;;;;;;32.50;22.55;;;;;;;;;;4924175;29;20036;-76
2021/12/06 12:53:53;;;;;;;34.55;24.10;;;;;;;;;;4931089;29;20053;-76
2021/12/06 12:56:20;;;;;;;35.30;24.15;;;;;;;;;;4917432;29;20054;-76
2021/12/06 12:58:46;;;;;;;37.33;26.02;;;;;;;;;;4910344;29;20032;-76
2021/12/06 13:01:14;;;;;;;37.47;26.63;;;;;;;;;;4940428;29;20497;-76
2021/12/06 13:03:44;;;;;;;44.50;28.17;;;;;;;;;;4933371;29;20028;-76
2021/12/06 13:06:21;;;;;;;42.13;27.52;;;;;;;;;;4933094;29;20031;-76
2021/12/06 13:08:48;;;;;;;40.50;26.05;;;;;;;;;;4920264;29;20035;-76
2021/12/06 13:11:14;;;;;;;41.28;26.88;;;;;;;;;;4934168;29;20375;-77
2021/12/06 13:13:48;;;;;;;40.15;27.65;;;;;;;;;;4940208;29;20489;-75
2021/12/06 13:19:21;;;;;;;43.60;29.90;;;;;;;;;;4916255;29;20430;-75
2021/12/06 13:21:53;;;;;;;43.90;27.88;;;;;;;;;;4903686;29;20494;-75
2021/12/06 13:24:19;;;;;;;47.42;29.05;;;;;;;;;;4898850;29;20534;-76
2021/12/06 13:26:56;;;;;;;39.97;26.10;;;;;;;;;;4899827;29;20056;-75
2021/12/06 13:29:30;;;;;;;40.05;26.85;;;;;;;;;;4883151;29;20487;-76
2021/12/06 13:31:56;;;;;;;44.50;28.23;;;;;;;;;;4899202;29;20032;-76
2021/12/06 13:34:27;;;;;;;45.05;29.67;;;;;;;;;;4917300;29;20510;-76
2021/12/06 13:36:55;;;;;;;51.47;31.33;;;;;;;;;;4912393;29;20044;-75
2021/12/06 13:39:39;;;;;;;46.47;30.83;;;;;;;;;;4916694;29;20028;-75
2021/12/06 13:42:12;;;;;;;49.85;30.40;;;;;;;;;;4911669;29;20060;-76
2021/12/06 13:44:46;;;;;;;52.95;32.53;;;;;;;;;;4898429;29;20032;-76
2021/12/06 13:47:22;;;;;;;52.95;32.45;;;;;;;;;;4907511;29;20475;-75
2021/12/06 13:49:59;;;;;;;53.95;33.35;;;;;;;;;;4915206;29;20091;-77
2021/12/06 13:52:40;;;;;;;57.63;36.33;;;;;;;;;;4901608;29;20024;-76
2021/12/06 13:55:21;;;;;;;55.65;33.42;;;;;;;;;;4915260;29;20223;-75
2021/12/06 13:57:48;;;;;;;47.70;30.10;;;;;;;;;;4921700;29;20030;-75
2021/12/06 14:00:16;;;;;;;58.20;33.65;;;;;;;;;;4938009;29;20023;-76
2021/12/06 14:02:43;;;;;;;56.45;35.78;;;;;;;;;;4921140;29;20031;-76
2021/12/06 14:05:10;;;;;;;55.03;32.88;;;;;;;;;;4935061;29;20499;-76
2021/12/06 14:07:40;;;;;;;52.85;32.00;;;;;;;;;;4919043;29;20028;-75
2021/12/06 14:10:08;;;;;;;52.45;31.50;;;;;;;;;;4919540;29;20111;-75
2021/12/06 14:12:35;;;;;;;47.22;29.90;;;;;;;;;;4921493;29;20036;-75
2021/12/06 14:15:17;;;;;;;48.15;31.10;;;;;;;;;;4902895;29;20505;-76
2021/12/06 14:17:43;;;;;;;50.63;30.27;;;;;;;;;;4933260;29;20042;-75
2021/12/06 14:20:11;;;;;;;49.05;29.95;;;;;;;;;;4929921;29;20082;-76
2021/12/06 14:22:37;;;;;;;48.92;29.83;;;;;;;;;;4903823;29;20036;-76
2021/12/06 14:25:05;;;;;;;44.83;28.60;;;;;;;;;;4918038;29;20043;-75
2021/12/06 14:27:36;;;;;;;46.25;30.52;;;;;;;;;;4916703;29;20051;-75
2021/12/06 14:30:03;;;;;;;55.28;36.15;;;;;;;;;;4899925;29;20032;-76
2021/12/06 14:32:29;;;;;;;43.92;30.48;;;;;;;;;;4901151;29;20047;-75
2021/12/06 14:34:57;;;;;;;53.45;34.15;;;;;;;;;;4912360;29;20039;-75
2021/12/06 14:37:23;;;;;;;48.38;31.27;;;;;;;;;;4919639;29;20078;-75
2021/12/06 14:39:56;;;;;;;52.47;34.10;;;;;;;;;;4900637;29;20446;-75
2021/12/06 14:42:22;;;;;;;50.75;33.13;;;;;;;;;;4917732;29;20039;-76
2021/12/06 14:44:50;;;;;;;50.45;32.58;;;;;;;;;;4918715;29;20060;-75
2021/12/06 14:47:16;;;;;;;50.80;33.70;;;;;;;;;;4927860;29;20028;-75
2021/12/06 14:49:43;;;;;;;61.38;39.55;;;;;;;;;;4903553;29;20064;-75
2021/12/06 14:52:20;;;;;;;60.53;39.28;;;;;;;;;;4918503;29;20024;-75
2021/12/06 14:55:21;;;;;;;52.60;33.25;;;;;;;;;;4917952;29;20043;-75
2021/12/06 14:57:49;;;;;;;55.47;34.20;;;;;;;;;;4906232;29;20067;-76
2021/12/06 15:00:17;;;;;;;61.65;40.28;;;;;;;;;;4901318;29;20463;-76
2021/12/06 15:02:52;;;;;;;55.30;36.15;;;;;;;;;;4927431;29;20083;-76
2021/12/06 15:05:22;;;;;;;65.43;43.33;;;;;;;;;;4932354;29;20032;-75
2021/12/06 15:07:53;;;;;;;61.47;39.88;;;;;;;;;;4918570;29;20024;-76
2021/12/06 15:10:19;;;;;;;59.65;35.47;;;;;;;;;;4921140;29;20031;-76
2021/12/06 15:12:50;;;;;;;60.92;38.40;;;;;;;;;;4920640;29;20084;-75
2021/12/06 15:15:20;;;;;;;55.15;34.63;;;;;;;;;;4908162;29;20063;-75
2021/12/06 15:17:49;;;;;;;64.18;37.08;;;;;;;;;;4929530;29;20032;-76
2021/12/06 15:20:15;;;;;;;60.08;36.33;;;;;;;;;;4923948;29;20032;-75
2021/12/06 15:22:42;;;;;;;60.50;36.17;;;;;;;;;;4922620;29;20066;-75
2021/12/06 15:25:10;;;;;;;62.03;40.08;;;;;;;;;;4921547;29;20021;-73
2021/12/06 15:27:36;;;;;;;56.03;36.05;;;;;;;;;;4927574;29;20515;-74
2021/12/06 15:30:08;;;;;;;57.35;35.90;;;;;;;;;;4920041;29;20530;-75
2021/12/06 15:32:36;;;;;;;53.63;34.70;;;;;;;;;;4900081;29;20115;-75
2021/12/06 15:35:04;;;;;;;58.53;34.45;;;;;;;;;;4933697;29;20043;-77
2021/12/06 15:37:31;;;;;;;60.03;36.95;;;;;;;;;;4929155;29;20024;-73
2021/12/06 15:39:58;;;;;;;60.85;36.63;;;;;;;;;;4907756;29;20091;-73
2021/12/06 15:42:28;;;;;;;59.38;38.22;;;;;;;;;;4918992;29;20042;-77
2021/12/06 15:44:55;;;;;;;64.47;40.20;;;;;;;;;;4935298;28;20016;-78
2021/12/06 15:47:32;;;;;;;63.08;41.83;;;;;;;;;;4935005;29;20048;-77
2021/12/06 15:49:59;;;;;;;60.45;40.10;;;;;;;;;;4946595;29;20024;-79
2021/12/06 15:52:28;;;;;;;55.35;37.58;;;;;;;;;;4938887;28;20032;-78
2021/12/06 15:54:59;;;;;;;107.50;63.38;;;;;;;;;;4916440;29;20463;-75
2021/12/06 15:57:27;;;;;;;72.28;42.55;;;;;;;;;;4929470;29;20060;-74
2021/12/06 16:00:03;;;;;;;279.50;137.40;;;;;;;;;;4927227;29;20028;-75
2021/12/06 16:02:33;;;;;;;115.00;68.20;;;;;;;;;;4926333;29;20040;-76